Time;durP1;ratioP1;P1;durP2;ratioP2;P2;SDS_P1;SDS_P2;PMS_P1;PMS_P2;Temp;Humidity;BMP_temperature;BMP_pressure;BME280_temperature;BME280_humidity;BME280_pressure;Samples;Min_cycle;Max_cycle;Signal;HPM_P1;HPM_P2
2023/07/09 00:00:04;;;;;;;;;;;;;;;27.90;46.65;98871.16;5093413;28;19912;-46
2023/07/09 00:02:29;;;;;;;;;;;;;;;27.43;47.87;98881.50;5093379;28;19912;-45
2023/07/09 00:04:55;;;;;;;;;;;;;;;27.15;48.24;98886.97;5093136;28;19923;-46
2023/07/09 00:07:29;;;;;;;;;;;;;;;26.87;48.94;98881.66;5076459;28;20040;-46
2023/07/09 00:09:55;;;;;;;;;;;;;;;26.70;49.28;98881.50;5093294;28;20374;-46
2023/07/09 00:12:21;;;;;;;;;;;;;;;26.53;49.92;98882.09;5093219;28;19918;-46
2023/07/09 00:14:46;;;;;;;;;;;;;;;26.37;50.13;98876.22;5093442;28;20424;-46
2023/07/09 00:17:26;;;;;;;;;;;;;;;26.23;51.23;98883.50;5093070;28;19912;-46
2023/07/09 00:19:51;;;;;;;;;;;;;;;26.08;51.62;98881.91;5093218;28;19915;-46
2023/07/09 00:22:18;;;;;;;;;;;;;;;26.02;52.13;98866.97;5094238;28;19957;-46
2023/07/09 00:24:50;;;;;;;;;;;;;;;26.22;52.47;98869.28;5092886;28;19919;-45
2023/07/09 00:27:18;;;;;;;;;;;;;;;26.58;51.30;98865.06;5094434;28;19915;-46
2023/07/09 00:29:43;;;;;;;;;;;;;;;26.90;49.76;98861.41;5094190;28;19912;-46
2023/07/09 00:32:20;;;;;;;;;;;;;;;26.99;49.87;98861.50;5093827;28;20491;-46
2023/07/09 00:34:48;;;;;;;;;;;;;;;26.97;49.12;98853.72;5092814;28;19915;-46
2023/07/09 00:37:15;;;;;;;;;;;;;;;26.73;50.27;98864.75;5092643;28;19912;-45
2023/07/09 00:39:41;;;;;;;;;;;;;;;26.73;50.11;98864.75;5094015;28;19922;-46
2023/07/09 00:42:17;;;;;;;;;;;;;;;26.69;50.13;98859.16;5093918;28;20335;-46
2023/07/09 00:44:47;;;;;;;;;;;;;;;26.86;50.36;98855.84;5092525;28;19961;-46
2023/07/09 00:47:41;;;;;;;;;;;;;;;27.28;49.80;98861.09;5092471;28;19915;-46
2023/07/09 00:50:27;;;;;;;;;;;;;;;27.76;48.55;98851.56;5092447;28;19919;-46
2023/07/09 00:52:58;;;;;;;;;;;;;;;27.92;47.93;98852.75;5093755;28;19912;-46
2023/07/09 00:55:25;;;;;;;;;;;;;;;28.04;47.50;98855.66;5093684;28;19912;-46
2023/07/09 00:57:56;;;;;;;;;;;;;;;28.20;47.38;98853.34;5093650;28;19955;-46
2023/07/09 01:00:22;;;;;;;;;;;;;;;28.55;46.21;98853.44;5093587;28;19912;-46
2023/07/09 01:02:48;;;;;;;;;;;;;;;28.71;45.97;98856.47;5092220;28;19919;-46
2023/07/09 01:05:16;;;;;;;;;;;;;;;28.88;45.11;98851.09;5092060;28;20398;-46
2023/07/09 01:07:45;;;;;;;;;;;;;;;28.97;44.73;98858.41;5093459;28;19918;-46
2023/07/09 01:10:11;;;;;;;;;;;;;;;29.09;44.40;98848.53;5093629;28;20525;-46
2023/07/09 01:12:37;;;;;;;;;;;;;;;29.22;44.18;98856.84;5092035;28;19915;-46
2023/07/09 01:15:03;;;;;;;;;;;;;;;29.23;44.11;98850.31;5091586;28;19912;-46
2023/07/09 01:17:29;;;;;;;;;;;;;;;29.41;43.92;98857.28;5093047;28;20425;-46
2023/07/09 01:19:55;;;;;;;;;;;;;;;29.59;43.22;98866.16;5092014;28;19920;-46
2023/07/09 01:22:22;;;;;;;;;;;;;;;29.63;43.19;98864.38;5093072;28;19912;-46
2023/07/09 01:24:55;;;;;;;;;;;;;;;29.65;42.89;98858.66;5093032;28;20014;-46
2023/07/09 01:27:22;;;;;;;;;;;;;;;29.58;43.14;98855.66;5091679;28;19912;-46
2023/07/09 01:29:50;;;;;;;;;;;;;;;29.62;42.69;98856.59;5091743;28;20297;-46
2023/07/09 01:32:18;;;;;;;;;;;;;;;29.60;42.71;98859.63;5092632;28;19919;-46
2023/07/09 01:34:44;;;;;;;;;;;;;;;29.65;42.21;98867.56;5093037;28;19947;-46
2023/07/09 01:37:10;;;;;;;;;;;;;;;29.54;42.33;98863.63;5093051;28;19912;-46
2023/07/09 01:39:35;;;;;;;;;;;;;;;29.47;42.21;98868.72;5091521;28;19916;-46
2023/07/09 01:42:01;;;;;;;;;;;;;;;29.37;42.49;98863.66;5092754;28;20441;-46
2023/07/09 01:44:29;;;;;;;;;;;;;;;29.32;42.17;98866.50;5091328;28;19922;-46
2023/07/09 01:46:54;;;;;;;;;;;;;;;29.08;42.03;98870.50;5092746;28;20330;-46
2023/07/09 01:49:20;;;;;;;;;;;;;;;28.67;43.00;98863.63;5091368;28;19966;-46
2023/07/09 01:51:47;;;;;;;;;;;;;;;28.37;44.13;98868.00;5091347;28;19912;-46
2023/07/09 01:54:12;;;;;;;;;;;;;;;28.48;44.20;98864.69;5091294;28;19912;-46
2023/07/09 01:56:38;;;;;;;;;;;;;;;28.49;44.43;98857.38;5092610;28;19916;-46
2023/07/09 01:59:04;;;;;;;;;;;;;;;28.39;44.08;98874.69;5091296;28;19919;-46
2023/07/09 02:01:30;;;;;;;;;;;;;;;28.42;44.65;98873.25;5092773;28;19912;-46
2023/07/09 02:03:55;;;;;;;;;;;;;;;28.37;44.02;98870.69;5091168;28;20331;-46
2023/07/09 02:06:24;;;;;;;;;;;;;;;27.89;44.16;98878.47;5091122;28;20373;-46
2023/07/09 02:08:49;;;;;;;;;;;;;;;27.61;45.45;98877.81;5092700;28;20293;-46
2023/07/09 02:11:15;;;;;;;;;;;;;;;28.07;45.80;98876.63;5092402;28;19916;-46
2023/07/09 02:13:40;;;;;;;;;;;;;;;28.54;44.33;98883.47;5092498;28;20442;-46
2023/07/09 02:16:05;;;;;;;;;;;;;;;28.80;44.21;98883.53;5092375;28;20377;-46
2023/07/09 02:18:31;;;;;;;;;;;;;;;29.24;43.46;98871.63;5091062;28;19924;-46
2023/07/09 02:20:56;;;;;;;;;;;;;;;29.48;42.65;98886.56;5092314;28;19926;-46
2023/07/09 02:23:26;;;;;;;;;;;;;;;29.50;42.08;98881.63;5091094;28;20396;-46
2023/07/09 02:25:51;;;;;;;;;;;;;;;29.39;42.10;98883.06;5090928;28;19912;-46
2023/07/09 02:28:18;;;;;;;;;;;;;;;29.04;42.45;98878.44;5092902;28;20274;-46
2023/07/09 02:30:43;;;;;;;;;;;;;;;28.76;42.62;98882.56;5096441;28;19912;-46
2023/07/09 02:33:08;;;;;;;;;;;;;;;28.16;43.71;98887.47;5077915;28;19916;-46
2023/07/09 02:35:35;;;;;;;;;;;;;;;27.68;44.46;98890.84;5096319;28;19955;-46
2023/07/09 02:38:01;;;;;;;;;;;;;;;27.39;44.77;98897.50;5096326;28;19912;-46
2023/07/09 02:40:26;;;;;;;;;;;;;;;27.15;45.30;98888.88;5096254;28;19911;-46
2023/07/09 02:42:52;;;;;;;;;;;;;;;27.23;46.07;98893.53;5096234;28;20289;-46
2023/07/09 02:45:17;;;;;;;;;;;;;;;27.15;46.10;98897.75;5096097;28;20377;-46
2023/07/09 02:47:42;;;;;;;;;;;;;;;26.89;46.62;98897.53;5096145;28;19919;-46
2023/07/09 02:50:08;;;;;;;;;;;;;;;26.60;47.43;98901.38;5094735;28;20381;-46
2023/07/09 02:52:33;;;;;;;;;;;;;;;26.49;47.76;98892.66;5096050;28;19912;-46
2023/07/09 02:54:59;;;;;;;;;;;;;;;26.39;48.09;98897.47;5094757;28;20373;-46
2023/07/09 02:57:24;;;;;;;;;;;;;;;26.13;49.28;98900.63;5095948;28;20007;-46
2023/07/09 02:59:50;;;;;;;;;;;;;;;25.76;49.87;98896.19;5094625;28;20274;-46
2023/07/09 03:02:15;;;;;;;;;;;;;;;25.56;51.16;98902.69;5095886;28;20416;-46
2023/07/09 03:04:41;;;;;;;;;;;;;;;25.33;52.29;98902.50;5094456;28;19912;-45
2023/07/09 03:07:07;;;;;;;;;;;;;;;25.19;52.81;98893.56;5095743;28;19919;-45
2023/07/09 03:09:32;;;;;;;;;;;;;;;25.48;52.44;98906.84;5095799;28;20640;-45
2023/07/09 03:11:58;;;;;;;;;;;;;;;25.67;51.81;98904.91;5094387;28;19959;-45
2023/07/09 03:14:23;;;;;;;;;;;;;;;25.74;51.39;98909.13;5094405;28;20309;-45
2023/07/09 03:16:49;;;;;;;;;;;;;;;25.48;51.67;98906.84;5094288;28;20297;-45
2023/07/09 03:19:14;;;;;;;;;;;;;;;25.40;51.77;98904.84;5094251;28;19986;-45
2023/07/09 03:21:39;;;;;;;;;;;;;;;25.43;51.65;98914.97;5095536;28;19912;-45
2023/07/09 03:24:06;;;;;;;;;;;;;;;25.44;51.31;98912.00;5095362;28;19916;-45
2023/07/09 03:26:31;;;;;;;;;;;;;;;25.46;51.23;98906.34;5094100;28;19925;-46
2023/07/09 03:28:56;;;;;;;;;;;;;;;25.47;50.90;98905.25;5094078;28;19923;-45
2023/07/09 03:31:22;;;;;;;;;;;;;;;25.53;50.64;98909.44;5093993;28;19916;-45
2023/07/09 03:33:48;;;;;;;;;;;;;;;25.50;50.44;98905.47;5093757;28;20008;-46
2023/07/09 03:36:13;;;;;;;;;;;;;;;25.52;50.45;98911.34;5095455;28;19919;-46
2023/07/09 03:38:39;;;;;;;;;;;;;;;25.63;50.27;98908.47;5094700;28;20421;-46
2023/07/09 03:41:04;;;;;;;;;;;;;;;25.61;50.14;98910.66;5093818;28;19974;-46
2023/07/09 03:43:30;;;;;;;;;;;;;;;25.61;50.17;98916.81;5095106;28;19919;-46
2023/07/09 03:45:55;;;;;;;;;;;;;;;25.62;50.36;98917.66;5094989;28;19951;-46
2023/07/09 03:48:21;;;;;;;;;;;;;;;25.55;50.41;98914.53;5093707;28;19915;-46
2023/07/09 03:50:47;;;;;;;;;;;;;;;25.59;51.20;98912.84;5093627;28;19977;-46
2023/07/09 03:53:13;;;;;;;;;;;;;;;25.67;51.04;98915.66;5093644;28;19912;-45
2023/07/09 03:55:38;;;;;;;;;;;;;;;25.53;51.38;98912.13;5094882;28;19919;-46
2023/07/09 03:58:04;;;;;;;;;;;;;;;25.25;51.87;98917.41;5093488;28;20297;-46
2023/07/09 04:00:29;;;;;;;;;;;;;;;25.06;52.54;98914.69;5093494;28;19919;-46
2023/07/09 04:02:56;;;;;;;;;;;;;;;25.00;53.34;98917.75;5093401;28;20006;-46
2023/07/09 04:05:24;;;;;;;;;;;;;;;24.87;53.66;98917.38;5094541;28;19998;-46
2023/07/09 04:07:50;;;;;;;;;;;;;;;24.76;54.06;98918.56;5094650;28;20359;-45
2023/07/09 04:10:16;;;;;;;;;;;;;;;24.70;54.08;98919.72;5094832;28;19916;-45
2023/07/09 04:12:41;;;;;;;;;;;;;;;24.72;54.06;98922.91;5093360;28;19969;-45
2023/07/09 04:15:07;;;;;;;;;;;;;;;24.72;53.97;98922.91;5094791;28;19912;-45
2023/07/09 04:17:33;;;;;;;;;;;;;;;24.76;54.16;98921.25;5094466;28;20006;-45
2023/07/09 04:19:58;;;;;;;;;;;;;;;24.80;54.31;98924.97;5094403;28;20385;-45
2023/07/09 04:22:24;;;;;;;;;;;;;;;24.79;54.49;98917.19;5094284;28;20278;-45
2023/07/09 04:24:50;;;;;;;;;;;;;;;24.84;54.28;98917.94;5092898;28;20312;-45
2023/07/09 04:27:16;;;;;;;;;;;;;;;24.86;54.40;98917.66;5094200;28;20381;-45
2023/07/09 04:29:41;;;;;;;;;;;;;;;24.85;54.71;98918.72;5094251;28;19919;-45
2023/07/09 04:32:08;;;;;;;;;;;;;;;24.98;54.24;98920.69;5092640;28;19912;-46
2023/07/09 04:34:33;;;;;;;;;;;;;;;25.21;53.49;98927.13;5092762;28;20381;-45
2023/07/09 04:36:59;;;;;;;;;;;;;;;25.57;52.83;98926.56;5094077;28;19919;-45
2023/07/09 04:39:24;;;;;;;;;;;;;;;25.95;51.61;98925.72;5092701;28;19912;-45
2023/07/09 04:41:49;;;;;;;;;;;;;;;26.34;50.60;98925.28;5092644;28;19912;-46
2023/07/09 04:44:15;;;;;;;;;;;;;;;26.74;49.61;98919.38;5092536;28;19916;-45
2023/07/09 04:46:40;;;;;;;;;;;;;;;27.00;49.08;98920.44;5092520;28;20324;-46
2023/07/09 04:49:06;;;;;;;;;;;;;;;27.11;48.71;98918.31;5093824;28;19920;-45
2023/07/09 04:51:31;;;;;;;;;;;;;;;27.22;49.11;98926.97;5091548;28;19935;-46
2023/07/09 04:53:57;;;;;;;;;;;;;;;27.43;48.36;98911.16;5092437;28;20304;-46
2023/07/09 04:56:22;;;;;;;;;;;;;;;27.55;47.69;98905.19;5092424;28;19922;-45
2023/07/09 04:58:48;;;;;;;;;;;;;;;27.72;47.14;98915.31;5093893;28;19961;-45
2023/07/09 05:01:13;;;;;;;;;;;;;;;27.93;46.39;98908.31;5092233;28;20003;-45
2023/07/09 05:03:38;;;;;;;;;;;;;;;28.02;46.11;98909.13;5092165;28;19912;-46
2023/07/09 05:06:04;;;;;;;;;;;;;;;28.18;45.73;98908.75;5093449;28;19923;-46
2023/07/09 05:08:30;;;;;;;;;;;;;;;28.34;45.29;98914.53;5092174;28;19993;-45
2023/07/09 05:10:56;;;;;;;;;;;;;;;28.62;44.73;98907.00;5075221;28;19915;-46
2023/07/09 05:13:22;;;;;;;;;;;;;;;28.81;44.34;98899.38;5092018;28;19981;-46
2023/07/09 05:15:49;;;;;;;;;;;;;;;29.19;43.57;98906.91;5093328;28;19923;-46
2023/07/09 05:18:15;;;;;;;;;;;;;;;29.51;43.18;98907.53;5091957;28;19912;-46
2023/07/09 05:20:40;;;;;;;;;;;;;;;30.05;41.84;98909.81;5091878;28;19912;-46
2023/07/09 05:23:06;;;;;;;;;;;;;;;30.47;40.70;98909.97;5092026;28;20278;-46
2023/07/09 05:25:32;;;;;;;;;;;;;;;30.98;39.90;98912.69;5093081;28;19962;-45
2023/07/09 05:27:57;;;;;;;;;;;;;;;31.40;39.22;98918.88;5093052;28;19937;-46
2023/07/09 05:30:22;;;;;;;;;;;;;;;31.83;38.34;98919.59;5093064;28;19915;-46
2023/07/09 05:32:48;;;;;;;;;;;;;;;32.06;37.35;98901.00;5092779;28;19977;-46
2023/07/09 05:35:14;;;;;;;;;;;;;;;32.29;37.02;98906.78;5092940;28;19918;-46
2023/07/09 05:37:39;;;;;;;;;;;;;;;32.46;36.89;98908.47;5092961;28;20389;-46
2023/07/09 05:40:06;;;;;;;;;;;;;;;32.36;36.23;98909.72;5092868;28;19924;-46
2023/07/09 05:42:32;;;;;;;;;;;;;;;32.51;36.20;98902.81;5091579;28;19960;-46
2023/07/09 05:44:58;;;;;;;;;;;;;;;32.52;36.38;98909.03;5091428;28;19916;-46
2023/07/09 05:47:24;;;;;;;;;;;;;;;32.41;36.33;98917.63;5092722;28;19916;-46
2023/07/09 05:49:50;;;;;;;;;;;;;;;32.69;35.67;98911.53;5092759;28;19912;-46
2023/07/09 05:52:21;;;;;;;;;;;;;;;32.97;35.80;98910.78;5092575;28;19969;-46
2023/07/09 05:54:48;;;;;;;;;;;;;;;33.24;35.44;98914.69;5092967;28;20349;-46
2023/07/09 05:57:14;;;;;;;;;;;;;;;33.53;34.53;98910.84;5092624;28;19919;-46
2023/07/09 05:59:39;;;;;;;;;;;;;;;34.13;34.45;98915.47;5091379;28;19920;-46
2023/07/09 06:02:07;;;;;;;;;;;;;;;34.71;33.16;98921.16;5092662;28;19922;-46
2023/07/09 06:04:33;;;;;;;;;;;;;;;34.78;32.61;98915.84;5091116;28;20006;-46
2023/07/09 06:06:58;;;;;;;;;;;;;;;35.08;32.03;98909.84;5091142;28;20010;-46
2023/07/09 06:09:23;;;;;;;;;;;;;;;34.89;31.90;98907.09;5092476;28;19912;-46
2023/07/09 06:11:49;;;;;;;;;;;;;;;34.77;32.41;98908.84;5091107;28;20354;-46
2023/07/09 06:14:16;;;;;;;;;;;;;;;35.18;32.17;98903.84;5092375;28;19991;-46
2023/07/09 06:16:43;;;;;;;;;;;;;;;35.64;31.40;98915.97;5092634;28;19912;-46
2023/07/09 06:19:08;;;;;;;;;;;;;;;36.09;30.70;98912.50;5092377;28;19919;-46
2023/07/09 06:21:33;;;;;;;;;;;;;;;36.59;30.51;98913.28;5090943;28;20303;-46
2023/07/09 06:23:59;;;;;;;;;;;;;;;37.17;29.03;98917.59;5092231;28;19959;-46
2023/07/09 06:26:24;;;;;;;;;;;;;;;37.73;28.72;98917.78;5092219;28;19912;-46
2023/07/09 06:28:50;;;;;;;;;;;;;;;38.29;28.21;98916.72;5092269;28;19912;-46
2023/07/09 06:31:15;;;;;;;;;;;;;;;38.54;27.69;98922.41;5092195;28;19920;-46
2023/07/09 06:33:40;;;;;;;;;;;;;;;38.59;27.78;98920.47;5091941;28;19916;-46
2023/07/09 06:36:06;;;;;;;;;;;;;;;38.82;27.07;98925.66;5090826;28;19934;-46
2023/07/09 06:38:31;;;;;;;;;;;;;;;38.98;26.88;98934.41;5092431;28;19912;-46
2023/07/09 06:40:57;;;;;;;;;;;;;;;39.33;26.90;98939.25;5090816;28;20404;-46
2023/07/09 06:43:22;;;;;;;;;;;;;;;39.69;25.96;98936.59;5090823;28;20027;-46
2023/07/09 06:45:58;;;;;;;;;;;;;;;39.71;25.75;98930.72;5092022;28;19911;-46
2023/07/09 06:48:25;;;;;;;;;;;;;;;39.75;25.27;98943.28;5090844;28;20278;-46
2023/07/09 06:50:51;;;;;;;;;;;;;;;39.69;25.61;98941.31;5090717;28;20461;-46
2023/07/09 06:53:17;;;;;;;;;;;;;;;39.42;25.81;98947.16;5090768;28;20454;-47
2023/07/09 06:55:42;;;;;;;;;;;;;;;39.17;26.39;98954.50;5090723;28;20116;-47
2023/07/09 06:58:08;;;;;;;;;;;;;;;39.02;26.21;98953.63;5092244;28;20438;-46
2023/07/09 07:00:34;;;;;;;;;;;;;;;39.14;26.28;98951.34;5090674;28;20301;-46
2023/07/09 07:03:00;;;;;;;;;;;;;;;39.07;26.29;98948.56;5091961;28;19919;-46
2023/07/09 07:05:26;;;;;;;;;;;;;;;39.13;26.52;98946.22;5091869;28;19920;-46
2023/07/09 07:07:53;;;;;;;;;;;;;;;39.80;26.19;98949.56;5091968;28;19912;-47
2023/07/09 07:10:18;;;;;;;;;;;;;;;39.99;25.61;98951.19;5091916;28;20300;-46
2023/07/09 07:12:45;;;;;;;;;;;;;;;40.10;25.70;98954.72;5091916;28;19941;-47
2023/07/09 07:15:12;;;;;;;;;;;;;;;40.27;25.41;98956.69;5093723;28;19912;-47
2023/07/09 07:17:37;;;;;;;;;;;;;;;40.39;25.35;98954.72;5095908;28;19959;-46
2023/07/09 07:20:03;;;;;;;;;;;;;;;40.51;25.06;98962.59;5094267;28;20356;-46
2023/07/09 07:22:28;;;;;;;;;;;;;;;40.41;25.16;98957.84;5094233;28;19912;-47
2023/07/09 07:24:54;;;;;;;;;;;;;;;40.72;24.67;98947.97;5095611;28;19947;-46
2023/07/09 07:27:19;;;;;;;;;;;;;;;41.18;24.37;98946.31;5094150;28;20213;-47
2023/07/09 07:29:45;;;;;;;;;;;;;;;41.55;24.33;98950.41;5095350;28;20393;-47
2023/07/09 07:32:11;;;;;;;;;;;;;;;41.89;23.60;98953.34;5094435;28;20338;-48
2023/07/09 07:34:36;;;;;;;;;;;;;;;41.81;23.37;98960.13;5098394;28;19916;-47
2023/07/09 07:37:01;;;;;;;;;;;;;;;40.67;24.13;98962.94;5095162;28;20377;-47
2023/07/09 07:39:27;;;;;;;;;;;;;;;40.25;24.50;98963.75;5093855;28;19916;-47
2023/07/09 07:41:52;;;;;;;;;;;;;;;39.55;25.12;98948.34;5095171;28;19919;-46
2023/07/09 07:44:18;;;;;;;;;;;;;;;38.84;26.09;98956.25;5095029;28;19912;-46
2023/07/09 07:46:44;;;;;;;;;;;;;;;38.58;26.42;98951.78;5093719;28;20071;-46
2023/07/09 07:49:10;;;;;;;;;;;;;;;39.10;25.45;98947.81;5095052;28;19916;-47
2023/07/09 07:51:35;;;;;;;;;;;;;;;39.12;25.39;98952.88;5093632;28;19923;-47
2023/07/09 07:54:01;;;;;;;;;;;;;;;39.13;25.60;98955.25;5094932;28;20375;-47
2023/07/09 07:56:26;;;;;;;;;;;;;;;39.41;25.08;98961.25;5093633;28;19999;-47
2023/07/09 07:58:51;;;;;;;;;;;;;;;39.55;25.31;98947.56;5093470;28;20365;-47
2023/07/09 08:01:17;;;;;;;;;;;;;;;39.88;24.92;98951.16;5093501;28;20391;-47
2023/07/09 08:03:42;;;;;;;;;;;;;;;40.09;24.93;98955.91;5095014;28;20424;-46
2023/07/09 08:06:08;;;;;;;;;;;;;;;40.55;24.48;98952.34;5094620;28;20385;-47
2023/07/09 08:08:33;;;;;;;;;;;;;;;40.52;24.00;98945.66;5093366;28;19963;-47
2023/07/09 08:11:04;;;;;;;;;;;;;;;40.34;24.57;98944.91;5094563;28;19912;-47
2023/07/09 08:13:32;;;;;;;;;;;;;;;40.40;24.51;98948.81;5094565;28;19957;-47
2023/07/09 08:15:58;;;;;;;;;;;;;;;40.91;24.59;98950.31;5094385;28;20502;-47
2023/07/09 08:18:23;;;;;;;;;;;;;;;41.09;22.91;98950.25;5093171;28;19919;-47
2023/07/09 08:20:49;;;;;;;;;;;;;;;40.78;23.01;98951.91;5093097;28;19912;-47
2023/07/09 08:23:14;;;;;;;;;;;;;;;41.38;23.29;98941.84;5094393;28;20385;-47
2023/07/09 08:25:40;;;;;;;;;;;;;;;42.70;22.09;98944.75;5094235;28;19918;-47
2023/07/09 08:28:06;;;;;;;;;;;;;;;42.84;22.13;98936.34;5093075;28;20004;-47
2023/07/09 08:30:31;;;;;;;;;;;;;;;43.04;20.00;98953.06;5094246;28;19965;-47
2023/07/09 08:32:57;;;;;;;;;;;;;;;42.71;18.93;98949.09;5092613;28;20329;-47
2023/07/09 08:35:22;;;;;;;;;;;;;;;43.16;19.38;98940.69;5094202;28;19916;-47
2023/07/09 08:37:48;;;;;;;;;;;;;;;43.84;18.36;98939.75;5092765;28;20430;-47
2023/07/09 08:40:14;;;;;;;;;;;;;;;43.58;18.48;98944.06;5094020;28;19912;-47
2023/07/09 08:42:45;;;;;;;;;;;;;;;43.34;18.23;98946.00;5093918;28;20415;-47
2023/07/09 08:45:29;;;;;;;;;;;;;;;43.72;18.36;98951.38;5093859;28;19912;-47
2023/07/09 08:48:06;;;;;;;;;;;;;;;44.55;18.33;98941.72;5093890;28;20011;-47
2023/07/09 08:50:32;;;;;;;;;;;;;;;45.74;17.73;98929.75;5093822;28;19916;-47
2023/07/09 08:52:58;;;;;;;;;;;;;;;46.01;16.51;98926.66;5093819;28;20408;-47
2023/07/09 08:55:26;;;;;;;;;;;;;;;45.85;16.91;98924.69;5092469;28;19919;-47
2023/07/09 08:57:59;;;;;;;;;;;;;;;46.09;17.01;98924.53;5093724;28;19918;-47
2023/07/09 09:00:31;;;;;;;;;;;;;;;45.82;16.57;98939.44;5093644;28;19974;-47
2023/07/09 09:02:56;;;;;;;;;;;;;;;46.18;16.42;98935.00;5092267;28;19919;-46
2023/07/09 09:05:23;;;;;;;;;;;;;;;46.65;16.06;98940.09;5092189;28;19912;-47
2023/07/09 09:07:58;;;;;;;;;;;;;;;47.25;16.15;98925.66;5092223;28;19920;-47
2023/07/09 09:10:42;;;;;;;;;;;;;;;47.65;15.82;98930.00;5093460;28;19912;-47
2023/07/09 09:13:12;;;;;;;;;;;;;;;48.05;14.40;98926.72;5092185;28;19919;-47
2023/07/09 09:15:49;;;;;;;;;;;;;;;46.69;15.52;98924.13;5093341;28;19995;-47
2023/07/09 09:18:28;;;;;;;;;;;;;;;46.01;16.35;98923.13;5093339;28;20412;-47
2023/07/09 09:21:00;;;;;;;;;;;;;;;46.26;16.38;98924.47;5091996;28;20054;-47
2023/07/09 09:23:30;;;;;;;;;;;;;;;47.05;16.02;98916.75;5091977;28;19915;-47
2023/07/09 09:25:58;;;;;;;;;;;;;;;46.86;15.21;98919.28;5093148;28;19951;-48
2023/07/09 09:28:26;;;;;;;;;;;;;;;45.32;16.39;98921.19;5091864;28;20420;-47
2023/07/09 09:30:51;;;;;;;;;;;;;;;44.50;17.09;98920.84;5093389;28;20329;-47
2023/07/09 09:33:17;;;;;;;;;;;;;;;43.75;17.89;98920.16;5091478;28;20003;-47
2023/07/09 09:35:45;;;;;;;;;;;;;;;42.99;18.50;98917.63;5091633;28;19912;-47
2023/07/09 09:38:17;;;;;;;;;;;;;;;42.58;19.00;98924.03;5092521;28;19957;-47
2023/07/09 09:40:43;;;;;;;;;;;;;;;42.69;19.65;98913.63;5092837;28;19919;-46
2023/07/09 09:43:14;;;;;;;;;;;;;;;43.02;18.67;98918.78;5091641;28;19911;-47
2023/07/09 09:45:40;;;;;;;;;;;;;;;42.67;19.36;98918.78;5091451;28;20297;-47
2023/07/09 09:48:13;;;;;;;;;;;;;;;42.37;19.92;98919.47;5093035;28;19916;-47
2023/07/09 09:50:40;;;;;;;;;;;;;;;42.37;19.95;98919.47;5092748;28;20393;-47
2023/07/09 09:53:07;;;;;;;;;;;;;;;42.60;19.71;98921.63;5092731;28;19960;-47
2023/07/09 09:55:33;;;;;;;;;;;;;;;42.28;20.26;98927.44;5092702;28;20012;-47
2023/07/09 09:57:59;;;;;;;;;;;;;;;41.92;20.84;98923.00;5092558;28;19912;-47
2023/07/09 10:00:26;;;;;;;;;;;;;;;41.66;20.82;98926.38;5092642;28;19912;-47
2023/07/09 10:03:03;;;;;;;;;;;;;;;41.48;21.28;98927.22;5092566;28;19943;-47
2023/07/09 10:05:37;;;;;;;;;;;;;;;41.76;20.81;98921.97;5092430;28;19912;-47
2023/07/09 10:08:09;;;;;;;;;;;;;;;42.02;20.82;98934.38;5091269;28;19912;-47
2023/07/09 10:10:34;;;;;;;;;;;;;;;42.64;20.68;98929.84;5092443;28;19992;-47
2023/07/09 10:13:05;;;;;;;;;;;;;;;43.36;19.91;98926.25;5092403;28;20011;-47
2023/07/09 10:15:30;;;;;;;;;;;;;;;43.81;19.33;98931.50;5092495;28;19948;-47
2023/07/09 10:18:07;;;;;;;;;;;;;;;44.54;18.85;98923.56;5092699;28;19981;-47
2023/07/09 10:21:05;;;;;;;;;;;;;;;44.68;18.43;98914.97;5091022;28;20003;-46
2023/07/09 10:23:43;;;;;;;;;;;;;;;44.30;19.08;98915.28;5074262;28;19912;-47
2023/07/09 10:26:35;;;;;;;;;;;;;;;44.57;19.00;98912.41;5090894;28;19919;-47
2023/07/09 10:29:00;;;;;;;;;;;;;;;44.37;18.22;98920.66;5088769;28;19958;-47
2023/07/09 10:31:45;;;;;;;;;;;;;;;44.14;18.32;98926.25;5092306;28;19943;-47
2023/07/09 10:34:36;;;;;;;;;;;;;;;43.84;18.34;98920.38;5091974;28;19923;-46
2023/07/09 10:37:17;;;;;;;;;;;;;;;43.76;18.59;98929.22;5089982;28;19912;-47
2023/07/09 10:39:46;;;;;;;;;;;;;;;43.44;18.66;98916.66;5092144;28;19916;-47
2023/07/09 10:42:18;;;;;;;;;;;;;;;42.44;20.00;98921.38;5092111;28;20398;-47
2023/07/09 10:44:48;;;;;;;;;;;;;;;42.28;20.09;98916.38;5092137;28;19912;-47
2023/07/09 10:47:23;;;;;;;;;;;;;;;42.71;20.17;98924.25;5092090;28;19962;-47
2023/07/09 10:49:49;;;;;;;;;;;;;;;43.21;19.57;98914.59;5093563;28;20633;-47
2023/07/09 10:52:14;;;;;;;;;;;;;;;43.57;19.35;98917.63;5096128;28;19912;-47
2023/07/09 10:55:00;;;;;;;;;;;;;;;43.37;19.02;98919.53;5094771;28;19920;-47
2023/07/09 10:57:30;;;;;;;;;;;;;;;43.25;18.99;98907.03;5096033;28;19964;-47
2023/07/09 10:59:56;;;;;;;;;;;;;;;43.47;19.45;98894.50;5094722;28;19916;-47
2023/07/09 11:02:32;;;;;;;;;;;;;;;43.32;19.38;98893.13;5095880;28;19912;-47
2023/07/09 11:05:03;;;;;;;;;;;;;;;43.65;19.45;98901.72;5095813;28;19912;-47
2023/07/09 11:07:31;;;;;;;;;;;;;;;43.35;18.83;98889.53;5096103;28;20282;-48
2023/07/09 11:09:58;;;;;;;;;;;;;;;43.00;19.42;98882.50;5094502;28;19912;-47
2023/07/09 11:12:28;;;;;;;;;;;;;;;42.87;19.09;98874.00;5096050;28;20449;-47
2023/07/09 11:14:56;;;;;;;;;;;;;;;42.89;19.56;98872.38;5096120;28;20304;-47
2023/07/09 11:17:22;;;;;;;;;;;;;;;43.35;19.45;98881.25;5095670;28;19916;-47
2023/07/09 11:19:53;;;;;;;;;;;;;;;43.17;19.33;98875.19;5095717;28;19912;-47
2023/07/09 11:22:23;;;;;;;;;;;;;;;43.38;19.34;98874.88;5094315;28;20373;-47
2023/07/09 11:24:53;;;;;;;;;;;;;;;43.48;19.43;98881.44;5095434;28;19912;-47
2023/07/09 11:27:20;;;;;;;;;;;;;;;43.12;18.96;98883.91;5095478;28;19939;-47
2023/07/09 11:29:55;;;;;;;;;;;;;;;42.70;19.27;98878.50;5095455;28;19918;-47
2023/07/09 11:32:22;;;;;;;;;;;;;;;42.69;20.11;98883.25;5094142;28;20339;-47
2023/07/09 11:34:48;;;;;;;;;;;;;;;43.04;19.93;98881.25;5095083;28;19969;-47
2023/07/09 11:37:14;;;;;;;;;;;;;;;43.38;19.96;98885.94;5095277;28;20382;-47
2023/07/09 11:39:40;;;;;;;;;;;;;;;43.57;19.35;98880.91;5095199;28;19912;-47
2023/07/09 11:42:25;;;;;;;;;;;;;;;43.43;19.66;98882.72;5095179;28;19920;-47
2023/07/09 11:44:52;;;;;;;;;;;;;;;43.57;19.70;98880.91;5095362;28;19919;-46
2023/07/09 11:47:36;;;;;;;;;;;;;;;43.76;18.95;98882.22;5095041;28;19912;-47
2023/07/09 11:50:10;;;;;;;;;;;;;;;43.93;19.09;98883.09;5095069;28;19912;-47
2023/07/09 11:52:40;;;;;;;;;;;;;;;44.11;18.82;98880.81;5095297;28;19998;-47
2023/07/09 11:55:18;;;;;;;;;;;;;;;44.08;19.03;98876.94;5094866;28;19920;-47
2023/07/09 11:57:46;;;;;;;;;;;;;;;44.30;19.18;98875.75;5093607;28;20378;-48
2023/07/09 12:00:12;;;;;;;;;;;;;;;44.53;18.21;98870.16;5094525;28;19912;-47
2023/07/09 12:02:38;;;;;;;;;;;;;;;44.07;18.58;98877.34;5093617;28;20363;-47
2023/07/09 12:05:04;;;;;;;;;;;;;;;43.83;19.03;98869.06;5094753;28;20445;-47
2023/07/09 12:07:29;;;;;;;;;;;;;;;43.50;19.55;98867.97;5094757;28;19912;-47
2023/07/09 12:09:55;;;;;;;;;;;;;;;43.19;19.79;98868.03;5094691;28;19918;-47
2023/07/09 12:12:23;;;;;;;;;;;;;;;43.66;19.80;98859.03;5093316;28;20018;-48
2023/07/09 12:14:49;;;;;;;;;;;;;;;43.91;19.04;98857.84;5093338;28;19912;-47
2023/07/09 12:17:14;;;;;;;;;;;;;;;43.53;19.65;98852.53;5094537;28;20373;-48
2023/07/09 12:19:40;;;;;;;;;;;;;;;42.99;20.15;98869.91;5093172;28;19923;-47
2023/07/09 12:22:09;;;;;;;;;;;;;;;42.66;20.06;98859.25;5094349;28;19923;-47
2023/07/09 12:24:41;;;;;;;;;;;;;;;42.59;20.37;98862.09;5092981;28;19912;-47
2023/07/09 12:27:24;;;;;;;;;;;;;;;42.41;20.39;98858.72;5094275;28;19957;-47
2023/07/09 12:29:51;;;;;;;;;;;;;;;42.04;20.88;98861.09;5093044;28;20007;-47
2023/07/09 12:32:17;;;;;;;;;;;;;;;41.91;21.11;98863.53;5092903;28;20343;-47
2023/07/09 12:34:46;;;;;;;;;;;;;;;41.89;21.00;98854.09;5092691;28;20439;-47
2023/07/09 12:37:13;;;;;;;;;;;;;;;41.85;21.29;98854.13;5094123;28;19954;-47
2023/07/09 12:39:38;;;;;;;;;;;;;;;41.91;21.68;98863.53;5092721;28;19916;-47
2023/07/09 12:42:04;;;;;;;;;;;;;;;42.16;21.42;98859.78;5092711;28;19961;-47
2023/07/09 12:44:36;;;;;;;;;;;;;;;42.56;21.01;98857.41;5092559;28;19912;-47
2023/07/09 12:47:02;;;;;;;;;;;;;;;42.44;20.90;98852.41;5094167;28;19912;-47
2023/07/09 12:49:31;;;;;;;;;;;;;;;42.14;20.41;98859.41;5093882;28;19912;-47